Time,TemperatureF,DewpointF,PressureIn,WindDirection,WindDirectionDegrees,WindSpeedMPH,WindSpeedGustMPH,Humidity,HourlyPrecipIn,Conditions,Clouds,dailyrainin,SoftwareType,DateUTC
2013-09-30 00:01:00,55.8,50.6,30.07,NW,315,0.0,0.0,83,0.00,,,0.00,WUHU21623XXSP,2013-09-30 04:01:00,
2013-09-30 00:06:00,55.8,50.6,30.07,NNW,337,0.0,0.0,83,0.00,,,0.00,WUHU21623XXSP,2013-09-30 04:06:00,
2013-09-30 00:11:00,55.8,50.6,30.07,NNW,337,0.0,0.0,83,0.00,,,0.00,WUHU21623XXSP,2013-09-30 04:11:00,
2013-09-30 00:16:00,55.8,50.6,30.07,NNW,337,0.0,0.0,83,0.00,,,0.00,WUHU21623XXSP,2013-09-30 04:16:00,
2013-09-30 00:21:00,55.8,50.6,30.07,NNW,337,0.0,0.0,83,0.00,,,0.00,WUHU21623XXSP,2013-09-30 04:21:00,
2013-09-30 00:26:00,55.8,50.6,30.07,NNW,337,0.0,0.0,83,0.00,,,0.00,WUHU21623XXSP,2013-09-30 04:26:00,
2013-09-30 00:31:00,55.8,50.6,30.07,NNW,337,0.0,0.0,83,0.00,,,0.00,WUHU21623XXSP,2013-09-30 04:31:00,
2013-09-30 00:36:00,55.9,50.8,30.06,NNW,337,0.0,0.0,83,0.00,,,0.00,WUHU21623XXSP,2013-09-30 04:36:00,
2013-09-30 00:41:00,55.9,50.8,30.06,NNW,337,0.0,0.0,83,0.00,,,0.00,WUHU21623XXSP,2013-09-30 04:41:00,
2013-09-30 00:46:00,55.9,50.8,30.06,NNW,337,0.0,0.0,83,0.00,,,0.00,WUHU21623XXSP,2013-09-30 04:46:00,
2013-09-30 00:51:00,55.9,50.8,30.06,NNW,337,0.0,0.0,83,0.00,,,0.00,WUHU21623XXSP,2013-09-30 04:51:00,
2013-09-30 00:56:00,56.1,51.0,30.07,NNW,337,0.0,0.0,83,0.00,,,0.00,WUHU21623XXSP,2013-09-30 04:56:00,
2013-09-30 01:01:00,56.1,51.0,30.06,NNW,337,0.0,0.0,83,0.00,,,0.00,WUHU21623XXSP,2013-09-30 05:01:00,
2013-09-30 01:06:00,56.1,51.0,30.06,NNW,337,0.0,0.0,83,0.00,,,0.00,WUHU21623XXSP,2013-09-30 05:06:00,
2013-09-30 01:11:00,56.1,51.0,30.06,NNW,337,0.0,0.0,83,0.00,,,0.00,WUHU21623XXSP,2013-09-30 05:11:00,
2013-09-30 01:16:00,56.1,51.0,30.06,NNW,337,0.0,0.0,83,0.00,,,0.00,WUHU21623XXSP,2013-09-30 05:16:00,
2013-09-30 01:21:00,56.1,51.2,30.05,NNW,337,0.0,0.0,83,0.00,,,0.00,WUHU21623XXSP,2013-09-30 05:21:00,
2013-09-30 01:26:00,56.1,51.0,30.06,NNW,337,0.0,0.0,83,0.00,,,0.00,WUHU21623XXSP,2013-09-30 05:26:00,
2013-09-30 01:31:00,55.9,50.8,30.06,NNW,337,0.0,0.0,83,0.00,,,0.00,WUHU21623XXSP,2013-09-30 05:31:00,
2013-09-30 01:36:00,55.9,50.8,30.06,NNW,337,0.0,0.0,83,0.00,,,0.00,WUHU21623XXSP,2013-09-30 05:36:00,
2013-09-30 01:41:00,55.9,50.8,30.06,NW,315,0.0,0.0,83,0.00,,,0.00,WUHU21623XXSP,2013-09-30 05:41:00,
2013-09-30 01:46:00,55.9,50.8,30.06,NNW,337,0.0,0.0,83,0.00,,,0.00,WUHU21623XXSP,2013-09-30 05:46:00,
2013-09-30 01:51:00,55.9,50.8,30.06,NNW,337,0.0,0.0,83,0.00,,,0.00,WUHU21623XXSP,2013-09-30 05:51:00,
2013-09-30 01:56:00,55.9,50.8,30.06,NNW,337,0.0,0.0,83,0.00,,,0.00,WUHU21623XXSP,2013-09-30 05:56:00,
2013-09-30 02:01:00,55.9,50.8,30.06,NNW,337,0.0,0.0,83,0.00,,,0.00,WUHU21623XXSP,2013-09-30 06:01:00,
2013-09-30 02:07:00,55.8,50.6,30.06,WSW,247,0.0,0.0,83,0.00,,,0.00,WUHU21623XXSP,2013-09-30 06:07:00,
2013-09-30 02:12:00,55.8,50.6,30.05,NW,315,0.0,0.0,83,0.00,,,0.00,WUHU21623XXSP,2013-09-30 06:12:00,
2013-09-30 02:17:00,55.8,50.6,30.05,NW,315,0.0,0.0,84,0.00,,,0.00,WUHU21623XXSP,2013-09-30 06:17:00,
2013-09-30 02:22:00,55.8,50.9,30.05,SE,135,0.0,0.0,84,0.00,,,0.00,WUHU21623XXSP,2013-09-30 06:22:00,
2013-09-30 02:27:00,55.6,50.8,30.05,South,180,0.0,0.0,84,0.00,,,0.00,WUHU21623XXSP,2013-09-30 06:27:00,
2013-09-30 02:32:00,55.6,50.8,30.06,South,180,0.0,0.0,84,0.00,,,0.00,WUHU21623XXSP,2013-09-30 06:32:00,
2013-09-30 02:37:00,55.4,50.6,30.05,WNW,292,0.0,0.0,84,0.00,,,0.00,WUHU21623XXSP,2013-09-30 06:37:00,
2013-09-30 02:42:00,55.4,50.6,30.05,SSE,157,0.0,1.6,84,0.00,,,0.00,WUHU21623XXSP,2013-09-30 06:42:00,
2013-09-30 02:47:00,55.4,50.6,30.05,SSE,157,0.0,1.6,85,0.00,,,0.00,WUHU21623XXSP,2013-09-30 06:47:00,
2013-09-30 02:52:00,55.4,50.9,30.05,WNW,292,2.5,2.5,85,0.00,,,0.00,WUHU21623XXSP,2013-09-30 06:52:00,
2013-09-30 02:57:00,55.6,50.9,30.05,NNW,337,0.0,2.5,85,0.00,,,0.00,WUHU21623XXSP,2013-09-30 06:57:00,
2013-09-30 03:02:00,55.6,51.1,30.05,SSE,157,0.0,2.5,85,0.00,,,0.00,WUHU21623XXSP,2013-09-30 07:02:00,
2013-09-30 03:07:00,55.6,51.1,30.05,SSE,157,0.0,0.0,85,0.00,,,0.00,WUHU21623XXSP,2013-09-30 07:07:00,
2013-09-30 03:12:00,55.4,50.9,30.05,NW,315,0.0,0.0,85,0.00,,,0.00,WUHU21623XXSP,2013-09-30 07:12:00,
2013-09-30 03:17:00,55.4,50.9,30.05,NW,315,0.0,0.0,85,0.00,,,0.00,WUHU21623XXSP,2013-09-30 07:17:00,
2013-09-30 03:22:00,55.4,50.9,30.05,NW,315,0.0,0.0,85,0.00,,,0.00,WUHU21623XXSP,2013-09-30 07:22:00,
2013-09-30 03:27:00,55.4,50.9,30.05,NW,315,0.0,0.0,85,0.00,,,0.00,WUHU21623XXSP,2013-09-30 07:27:00,
2013-09-30 03:48:00,55.4,50.9,30.06,NW,315,0.0,0.0,85,0.00,,,0.00,WUHU21623XXSP,2013-09-30 07:48:00,
2013-09-30 03:53:00,55.4,50.9,30.06,SW,225,0.0,0.0,85,0.00,,,0.00,WUHU21623XXSP,2013-09-30 07:53:00,
2013-09-30 03:58:00,55.6,50.9,30.06,SW,225,0.0,0.0,85,0.00,,,0.00,WUHU21623XXSP,2013-09-30 07:58:00,
2013-09-30 04:03:00,55.6,50.9,30.05,NNW,337,0.0,0.0,85,0.00,,,0.00,WUHU21623XXSP,2013-09-30 08:03:00,
2013-09-30 04:08:00,55.6,51.1,30.06,SE,135,0.0,0.0,85,0.00,,,0.00,WUHU21623XXSP,2013-09-30 08:08:00,
2013-09-30 04:13:00,55.6,51.1,30.06,SE,135,0.0,0.0,85,0.00,,,0.00,WUHU21623XXSP,2013-09-30 08:13:00,
2013-09-30 04:18:00,55.4,50.9,30.06,ESE,112,0.0,0.0,85,0.00,,,0.00,WUHU21623XXSP,2013-09-30 08:18:00,
2013-09-30 04:23:00,55.4,50.9,30.05,NE,45,0.0,0.0,85,0.00,,,0.00,WUHU21623XXSP,2013-09-30 08:23:00,
2013-09-30 04:28:00,55.4,50.9,30.05,NW,315,0.0,0.0,85,0.00,,,0.00,WUHU21623XXSP,2013-09-30 08:28:00,
2013-09-30 04:33:00,55.4,50.9,30.05,WNW,292,0.0,0.0,85,0.00,,,0.00,WUHU21623XXSP,2013-09-30 08:33:00,
2013-09-30 04:38:00,55.6,51.1,30.05,WSW,247,0.0,0.0,85,0.00,,,0.00,WUHU21623XXSP,2013-09-30 08:38:00,
2013-09-30 04:43:00,55.6,51.4,30.05,SSE,157,0.0,0.0,86,0.00,,,0.00,WUHU21623XXSP,2013-09-30 08:43:00,
2013-09-30 04:48:00,55.6,51.4,30.05,SSE,157,0.0,0.0,86,0.00,,,0.00,WUHU21623XXSP,2013-09-30 08:48:00,
2013-09-30 04:53:00,55.8,51.6,30.05,NNW,337,0.0,0.0,86,0.00,,,0.00,WUHU21623XXSP,2013-09-30 08:53:00,
2013-09-30 04:58:00,55.9,51.8,30.05,North,0,0.0,0.0,86,0.00,,,0.00,WUHU21623XXSP,2013-09-30 08:58:00,
2013-09-30 05:03:00,55.9,51.8,30.04,NNW,337,0.0,0.0,86,0.00,,,0.00,WUHU21623XXSP,2013-09-30 09:03:00,
2013-09-30 05:08:00,56.1,51.8,30.05,NNW,337,0.0,0.0,86,0.00,,,0.00,WUHU21623XXSP,2013-09-30 09:08:00,
2013-09-30 05:13:00,56.1,51.9,30.05,NNW,337,0.0,0.0,86,0.00,,,0.00,WUHU21623XXSP,2013-09-30 09:13:00,
2013-09-30 05:18:00,56.3,52.1,30.04,NW,315,0.0,0.0,86,0.00,,,0.00,WUHU21623XXSP,2013-09-30 09:18:00,
2013-09-30 05:23:00,56.5,52.3,30.04,NNW,337,0.0,0.0,86,0.00,,,0.00,WUHU21623XXSP,2013-09-30 09:23:00,
2013-09-30 05:28:00,56.5,52.3,30.04,NNW,337,0.0,0.0,86,0.00,,,0.00,WUHU21623XXSP,2013-09-30 09:28:00,
2013-09-30 05:33:00,56.5,52.3,30.04,ESE,112,0.0,0.0,86,0.00,,,0.00,WUHU21623XXSP,2013-09-30 09:33:00,
2013-09-30 05:38:00,56.5,52.3,30.05,ESE,112,0.0,0.0,86,0.00,,,0.00,WUHU21623XXSP,2013-09-30 09:38:00,
2013-09-30 05:43:00,56.8,52.7,30.05,WNW,292,0.0,0.0,86,0.00,,,0.00,WUHU21623XXSP,2013-09-30 09:43:00,
2013-09-30 05:48:00,56.8,52.7,30.04,NW,315,0.0,0.0,86,0.00,,,0.00,WUHU21623XXSP,2013-09-30 09:48:00,
2013-09-30 05:53:00,56.8,52.7,30.04,NW,315,0.0,0.0,86,0.00,,,0.00,WUHU21623XXSP,2013-09-30 09:53:00,
2013-09-30 05:58:00,56.8,52.7,30.05,SSE,157,0.0,0.0,86,0.00,,,0.00,WUHU21623XXSP,2013-09-30 09:58:00,
2013-09-30 06:03:00,56.8,52.7,30.05,West,270,0.0,0.0,86,0.00,,,0.00,WUHU21623XXSP,2013-09-30 10:03:00,
2013-09-30 06:08:00,56.8,52.7,30.05,West,270,0.0,0.0,86,0.00,,,0.00,WUHU21623XXSP,2013-09-30 10:08:00,
2013-09-30 06:13:00,56.8,52.7,30.04,West,270,0.0,0.0,86,0.00,,,0.00,WUHU21623XXSP,2013-09-30 10:13:00,
2013-09-30 06:18:00,56.8,52.7,30.05,NNW,337,0.0,0.0,86,0.00,,,0.00,WUHU21623XXSP,2013-09-30 10:18:00,
2013-09-30 06:23:00,56.8,52.7,30.05,NNW,337,0.0,0.0,86,0.00,,,0.00,WUHU21623XXSP,2013-09-30 10:23:00,
2013-09-30 06:28:00,56.8,52.7,30.05,WNW,292,0.0,0.0,86,0.00,,,0.00,WUHU21623XXSP,2013-09-30 10:28:00,
2013-09-30 06:33:00,57.0,52.8,30.04,WNW,292,0.0,0.0,86,0.00,,,0.00,WUHU21623XXSP,2013-09-30 10:33:00,
2013-09-30 06:38:00,57.0,52.8,30.04,WNW,292,0.0,0.0,86,0.00,,,0.00,WUHU21623XXSP,2013-09-30 10:38:00,
2013-09-30 06:43:00,57.0,52.8,30.04,NNW,337,0.0,0.0,86,0.00,,,0.00,WUHU21623XXSP,2013-09-30 10:43:00,
2013-09-30 06:48:00,56.8,52.7,30.05,North,0,0.0,0.0,86,0.00,,,0.00,WUHU21623XXSP,2013-09-30 10:48:00,
2013-09-30 06:53:00,56.8,52.7,30.05,North,0,0.0,0.0,86,0.00,,,0.00,WUHU21623XXSP,2013-09-30 10:53:00,
2013-09-30 06:58:00,56.8,52.7,30.05,North,0,0.0,0.0,86,0.00,,,0.00,WUHU21623XXSP,2013-09-30 10:58:00,
2013-09-30 07:03:00,56.8,52.7,30.06,North,0,0.0,0.0,86,0.00,,,0.00,WUHU21623XXSP,2013-09-30 11:03:00,
2013-09-30 07:08:00,56.8,52.7,30.05,West,270,0.0,0.0,86,0.00,,,0.00,WUHU21623XXSP,2013-09-30 11:08:00,
2013-09-30 07:13:00,56.8,52.7,30.05,West,270,0.0,0.0,86,0.00,,,0.00,WUHU21623XXSP,2013-09-30 11:13:00,
2013-09-30 07:18:00,56.7,52.5,30.06,West,270,0.0,0.0,86,0.00,,,0.00,WUHU21623XXSP,2013-09-30 11:18:00,
2013-09-30 07:23:00,56.8,52.7,30.05,West,270,0.0,0.0,86,0.00,,,0.00,WUHU21623XXSP,2013-09-30 11:23:00,
2013-09-30 07:28:00,56.8,53.0,30.05,NW,315,0.0,0.0,87,0.00,,,0.00,WUHU21623XXSP,2013-09-30 11:28:00,
2013-09-30 07:33:00,57.0,53.0,30.05,NNW,337,0.0,0.0,87,0.00,,,0.00,WUHU21623XXSP,2013-09-30 11:33:00,
2013-09-30 07:39:00,57.0,53.2,30.05,NNW,337,0.0,0.0,87,0.00,,,0.00,WUHU21623XXSP,2013-09-30 11:39:00,
2013-09-30 07:44:00,57.2,53.2,30.06,North,0,1.3,1.3,87,0.00,,,0.00,WUHU21623XXSP,2013-09-30 11:44:00,
2013-09-30 07:49:00,57.4,53.5,30.06,NNW,337,0.0,1.3,87,0.00,,,0.00,WUHU21623XXSP,2013-09-30 11:49:00,
2013-09-30 07:54:00,57.6,53.7,30.06,West,270,0.0,0.0,87,0.00,,,0.00,WUHU21623XXSP,2013-09-30 11:54:00,
2013-09-30 07:59:00,57.7,53.9,30.06,NNE,22,0.0,0.0,87,0.00,,,0.00,WUHU21623XXSP,2013-09-30 11:59:00,
2013-09-30 08:04:00,57.9,54.1,30.06,SE,135,0.0,0.0,87,0.00,,,0.00,WUHU21623XXSP,2013-09-30 12:04:00,
2013-09-30 08:09:00,57.9,54.1,30.06,NNW,337,0.0,0.0,87,0.00,,,0.00,WUHU21623XXSP,2013-09-30 12:09:00,
2013-09-30 08:14:00,58.3,54.4,30.05,North,0,0.0,0.0,87,0.00,,,0.00,WUHU21623XXSP,2013-09-30 12:14:00,
2013-09-30 08:19:00,58.5,54.6,30.04,WNW,292,0.0,0.0,87,0.00,,,0.00,WUHU21623XXSP,2013-09-30 12:19:00,
2013-09-30 08:24:00,58.6,54.5,30.04,WNW,292,0.0,0.0,86,0.00,,,0.00,WUHU21623XXSP,2013-09-30 12:24:00,
2013-09-30 08:29:00,58.8,55.0,30.04,NNW,337,0.0,0.0,87,0.00,,,0.00,WUHU21623XXSP,2013-09-30 12:29:00,
2013-09-30 08:34:00,58.8,55.0,30.04,NW,315,0.9,0.9,87,0.00,,,0.00,WUHU21623XXSP,2013-09-30 12:34:00,
2013-09-30 08:39:00,59.0,55.1,30.04,West,270,0.0,0.9,87,0.00,,,0.00,WUHU21623XXSP,2013-09-30 12:39:00,
2013-09-30 08:44:00,59.4,55.3,30.04,WNW,292,0.0,0.0,87,0.00,,,0.00,WUHU21623XXSP,2013-09-30 12:44:00,
2013-09-30 08:49:00,59.5,55.4,30.04,NNW,337,0.0,0.0,86,0.00,,,0.00,WUHU21623XXSP,2013-09-30 12:49:00,
2013-09-30 08:54:00,59.7,55.5,30.04,North,0,2.9,2.9,86,0.00,,,0.00,WUHU21623XXSP,2013-09-30 12:54:00,
2013-09-30 08:59:00,59.9,55.7,30.04,NNW,337,1.8,2.9,86,0.00,,,0.00,WUHU21623XXSP,2013-09-30 12:59:00,
2013-09-30 09:04:00,60.4,56.3,30.04,WSW,247,2.2,2.2,86,0.00,,,0.00,WUHU21623XXSP,2013-09-30 13:04:00,
2013-09-30 09:09:00,60.4,55.9,30.04,WNW,292,0.0,2.2,85,0.00,,,0.00,WUHU21623XXSP,2013-09-30 13:09:00,
2013-09-30 09:14:00,60.6,56.1,30.04,SSW,202,0.0,0.0,85,0.00,,,0.00,WUHU21623XXSP,2013-09-30 13:14:00,
2013-09-30 09:19:00,61.0,56.1,30.04,WSW,247,0.0,0.0,84,0.00,,,0.00,WUHU21623XXSP,2013-09-30 13:19:00,
2013-09-30 09:24:00,61.2,56.6,30.04,North,0,0.0,0.0,85,0.00,,,0.00,WUHU21623XXSP,2013-09-30 13:24:00,
2013-09-30 09:29:00,61.5,56.6,30.04,NNW,337,0.0,1.3,84,0.00,,,0.00,WUHU21623XXSP,2013-09-30 13:29:00,
2013-09-30 09:34:00,62.4,57.5,30.04,NW,315,0.0,1.3,84,0.00,,,0.00,WUHU21623XXSP,2013-09-30 13:34:00,
2013-09-30 09:39:00,63.7,58.4,30.04,SE,135,0.0,0.0,83,0.00,,,0.00,WUHU21623XXSP,2013-09-30 13:39:00,
2013-09-30 09:44:00,64.4,58.1,30.04,West,270,0.0,0.9,80,0.00,,,0.00,WUHU21623XXSP,2013-09-30 13:44:00,
2013-09-30 09:49:00,64.6,57.9,30.03,NW,315,1.3,1.3,79,0.00,,,0.00,WUHU21623XXSP,2013-09-30 13:49:00,
2013-09-30 09:54:00,64.6,57.9,30.03,WSW,247,0.0,2.2,79,0.00,,,0.00,WUHU21623XXSP,2013-09-30 13:54:00,
2013-09-30 09:59:00,64.4,57.4,30.02,ESE,112,0.0,2.2,78,0.00,,,0.00,WUHU21623XXSP,2013-09-30 13:59:00,
2013-09-30 10:04:00,64.4,57.5,30.02,NW,315,0.0,0.0,78,0.00,,,0.00,WUHU21623XXSP,2013-09-30 14:04:00,
2013-09-30 10:09:00,64.3,57.1,30.02,West,270,0.0,0.0,77,0.00,,,0.00,WUHU21623XXSP,2013-09-30 14:09:00,
2013-09-30 10:14:00,64.4,56.8,30.02,SSE,157,0.0,0.0,76,0.00,,,0.00,WUHU21623XXSP,2013-09-30 14:14:00,
2013-09-30 10:19:00,64.1,55.7,30.02,NW,315,1.6,1.6,74,0.00,,,0.00,WUHU21623XXSP,2013-09-30 14:19:00,
2013-09-30 10:24:00,63.2,54.6,30.02,ESE,112,0.0,1.6,73,0.00,,,0.00,WUHU21623XXSP,2013-09-30 14:24:00,
2013-09-30 10:29:00,62.0,53.4,30.02,SSE,157,0.0,1.8,73,0.00,,,0.00,WUHU21623XXSP,2013-09-30 14:29:00,
2013-09-30 10:34:00,60.9,52.3,30.02,SSE,157,0.0,1.8,73,0.00,,,0.00,WUHU21623XXSP,2013-09-30 14:34:00,
2013-09-30 10:39:00,60.0,51.5,30.02,SE,135,1.3,1.3,73,0.00,,,0.00,WUHU21623XXSP,2013-09-30 14:39:00,
2013-09-30 10:44:00,58.9,50.7,30.02,East,90,0.0,1.3,74,0.00,,,0.00,WUHU21623XXSP,2013-09-30 14:44:00,
2013-09-30 10:49:00,58.2,49.7,30.02,ESE,112,0.0,0.0,73,0.00,,,0.00,WUHU21623XXSP,2013-09-30 14:49:00,
2013-09-30 10:54:00,57.5,49.0,30.02,NNE,22,0.0,0.0,73,0.00,,,0.00,WUHU21623XXSP,2013-09-30 14:54:00,
2013-09-30 10:59:00,56.5,48.0,30.02,North,0,0.0,0.0,73,0.00,,,0.00,WUHU21623XXSP,2013-09-30 14:59:00,
2013-09-30 11:04:00,56.2,47.7,30.02,NE,45,0.0,0.0,73,0.00,,,0.00,WUHU21623XXSP,2013-09-30 15:04:00,
2013-09-30 11:09:00,55.9,47.5,30.02,South,180,0.0,0.0,73,0.00,,,0.00,WUHU21623XXSP,2013-09-30 15:09:00,
2013-09-30 11:14:00,55.6,47.1,30.02,NNW,337,0.0,0.0,73,0.00,,,0.00,WUHU21623XXSP,2013-09-30 15:14:00,
2013-09-30 11:19:00,55.2,46.8,30.02,East,90,0.0,0.0,73,0.00,,,0.00,WUHU21623XXSP,2013-09-30 15:19:00,
2013-09-30 11:20:00,55.1,46.7,30.02,East,90,0.0,0.0,73,0.00,,,0.00,WUHU21623XXSP,2013-09-30 15:20:00,
2013-09-30 11:22:00,55.0,46.6,30.02,NNE,22,0.0,0.0,73,0.00,,,0.00,WUHU21623XXSP,2013-09-30 15:22:00,
2013-09-30 11:24:00,54.7,46.4,30.02,ENE,67,0.0,0.0,73,0.00,,,0.00,WUHU21623XXSP,2013-09-30 15:24:00,
2013-09-30 11:26:00,54.7,46.3,30.02,ESE,112,0.0,0.0,73,0.00,,,0.00,WUHU21623XXSP,2013-09-30 15:26:00,
2013-09-30 11:28:00,54.7,46.7,30.02,East,90,0.0,0.0,74,0.00,,,0.00,WUHU21623XXSP,2013-09-30 15:28:00,
2013-09-30 11:30:00,54.7,46.7,30.02,East,90,0.0,0.0,74,0.00,,,0.00,WUHU21623XXSP,2013-09-30 15:30:00,
2013-09-30 11:33:00,54.7,46.7,30.02,ESE,112,0.0,0.0,74,0.00,,,0.00,WUHU21623XXSP,2013-09-30 15:33:00,
2013-09-30 11:35:00,54.5,46.5,30.02,ESE,112,0.0,0.0,74,0.00,,,0.00,WUHU21623XXSP,2013-09-30 15:35:00,
2013-09-30 11:37:00,54.6,46.6,30.02,South,180,0.0,0.0,74,0.00,,,0.00,WUHU21623XXSP,2013-09-30 15:37:00,
2013-09-30 11:39:00,54.6,46.6,30.02,South,180,0.0,0.0,74,0.00,,,0.00,WUHU21623XXSP,2013-09-30 15:39:00,
2013-09-30 11:41:00,54.7,46.7,30.02,NNW,337,0.0,0.0,74,0.00,,,0.00,WUHU21623XXSP,2013-09-30 15:41:00,
2013-09-30 11:43:00,54.6,46.5,30.02,NNW,337,0.0,0.0,74,0.00,,,0.00,WUHU21623XXSP,2013-09-30 15:43:00,
2013-09-30 11:46:00,54.7,46.6,30.02,NNE,22,0.0,0.0,74,0.00,,,0.00,WUHU21623XXSP,2013-09-30 15:46:00,
2013-09-30 11:48:00,54.7,47.1,30.02,NNE,22,0.0,0.0,75,0.00,,,0.00,WUHU21623XXSP,2013-09-30 15:48:00,
2013-09-30 11:50:00,54.9,47.2,30.02,South,180,0.0,0.0,75,0.00,,,0.00,WUHU21623XXSP,2013-09-30 15:50:00,
2013-09-30 11:52:00,55.0,47.3,30.02,NNE,22,0.0,0.0,75,0.00,,,0.00,WUHU21623XXSP,2013-09-30 15:52:00,
2013-09-30 11:54:00,55.1,47.4,30.02,NNE,22,0.0,0.0,75,0.00,,,0.00,WUHU21623XXSP,2013-09-30 15:54:00,
2013-09-30 11:56:00,55.7,48.0,30.02,WSW,247,2.0,2.0,75,0.00,,,0.00,WUHU21623XXSP,2013-09-30 15:56:00,
2013-09-30 11:57:00,55.7,48.0,30.02,WSW,247,2.0,2.0,75,0.00,,,0.00,WUHU21623XXSP,2013-09-30 15:57:00,
2013-09-30 12:02:00,57.1,49.3,30.01,North,0,0.0,2.0,75,0.00,,,0.00,WUHU21623XXSP,2013-09-30 16:02:00,
2013-09-30 12:07:00,58.9,50.3,30.01,South,180,0.0,0.0,73,0.00,,,0.00,WUHU21623XXSP,2013-09-30 16:07:00,
2013-09-30 12:12:00,59.7,50.8,30.01,North,0,1.3,1.3,72,0.00,,,0.00,WUHU21623XXSP,2013-09-30 16:12:00,
2013-09-30 12:17:00,60.4,51.1,30.01,NNE,22,0.0,1.3,71,0.00,,,0.00,WUHU21623XXSP,2013-09-30 16:17:00,
2013-09-30 12:22:00,61.8,52.1,30.01,NNE,22,0.0,0.0,70,0.00,,,0.00,WUHU21623XXSP,2013-09-30 16:22:00,
2013-09-30 12:27:00,62.4,52.2,30.00,West,270,0.0,0.0,69,0.00,,,0.00,WUHU21623XXSP,2013-09-30 16:27:00,
2013-09-30 12:32:00,62.9,52.4,30.01,SE,135,0.0,0.0,68,0.00,,,0.00,WUHU21623XXSP,2013-09-30 16:32:00,
2013-09-30 12:37:00,63.2,52.7,30.00,NE,45,1.6,1.6,68,0.00,,,0.00,WUHU21623XXSP,2013-09-30 16:37:00,
2013-09-30 12:42:00,63.6,53.4,30.00,NW,315,2.0,2.0,69,0.00,,,0.00,WUHU21623XXSP,2013-09-30 16:42:00,
2013-09-30 12:47:00,64.2,54.0,30.00,SSE,157,1.3,2.0,69,0.00,,,0.00,WUHU21623XXSP,2013-09-30 16:47:00,
2013-09-30 12:52:00,65.4,55.1,29.99,ENE,67,1.1,2.0,69,0.00,,,0.00,WUHU21623XXSP,2013-09-30 16:52:00,
2013-09-30 12:57:00,66.2,55.9,29.99,SSE,157,0.0,1.1,69,0.00,,,0.00,WUHU21623XXSP,2013-09-30 16:57:00,
2013-09-30 13:02:00,66.7,56.2,30.00,East,90,0.0,1.8,69,0.00,,,0.00,WUHU21623XXSP,2013-09-30 17:02:00,
2013-09-30 13:07:00,66.7,55.8,30.00,NE,45,0.0,1.8,68,0.00,,,0.00,WUHU21623XXSP,2013-09-30 17:07:00,
2013-09-30 13:12:00,66.7,55.8,30.00,SE,135,0.0,1.6,68,0.00,,,0.00,WUHU21623XXSP,2013-09-30 17:12:00,
2013-09-30 13:17:00,66.4,55.5,30.00,SE,135,1.3,1.3,68,0.00,,,0.00,WUHU21623XXSP,2013-09-30 17:17:00,
2013-09-30 13:22:00,66.0,55.5,29.99,NW,315,0.0,1.3,69,0.00,,,0.00,WUHU21623XXSP,2013-09-30 17:22:00,
2013-09-30 13:27:00,66.4,55.9,29.99,WSW,247,1.3,1.3,69,0.00,,,0.00,WUHU21623XXSP,2013-09-30 17:27:00,
2013-09-30 13:32:00,66.6,56.0,29.99,NNE,22,2.2,2.2,69,0.00,,,0.00,WUHU21623XXSP,2013-09-30 17:32:00,
2013-09-30 13:37:00,66.7,55.8,29.99,South,180,1.1,3.1,68,0.00,,,0.00,WUHU21623XXSP,2013-09-30 17:37:00,
2013-09-30 13:42:00,66.7,55.8,29.99,South,180,0.0,3.1,68,0.00,,,0.00,WUHU21623XXSP,2013-09-30 17:42:00,
2013-09-30 13:47:00,66.4,55.5,29.99,SSE,157,0.0,0.0,68,0.00,,,0.00,WUHU21623XXSP,2013-09-30 17:47:00,
2013-09-30 13:52:00,66.0,55.1,29.99,ENE,67,0.0,0.0,68,0.00,,,0.00,WUHU21623XXSP,2013-09-30 17:52:00,
2013-09-30 13:57:00,65.8,55.0,29.99,South,180,0.0,0.0,68,0.00,,,0.00,WUHU21623XXSP,2013-09-30 17:57:00,
2013-09-30 14:02:00,65.5,55.0,29.99,South,180,0.0,3.6,69,0.00,,,0.00,WUHU21623XXSP,2013-09-30 18:02:00,
2013-09-30 14:07:00,65.1,54.7,29.99,ESE,112,0.0,3.6,69,0.00,,,0.00,WUHU21623XXSP,2013-09-30 18:07:00,
2013-09-30 14:12:00,65.3,54.9,29.99,North,0,1.8,1.8,69,0.00,,,0.00,WUHU21623XXSP,2013-09-30 18:12:00,
2013-09-30 14:17:00,65.7,55.2,29.98,South,180,2.0,2.0,69,0.00,,,0.00,WUHU21623XXSP,2013-09-30 18:17:00,
2013-09-30 14:22:00,65.8,55.4,29.98,East,90,0.0,2.0,69,0.00,,,0.00,WUHU21623XXSP,2013-09-30 18:22:00,
2013-09-30 14:27:00,65.5,55.0,29.97,ENE,67,0.0,3.6,69,0.00,,,0.00,WUHU21623XXSP,2013-09-30 18:27:00,
2013-09-30 14:32:00,65.3,54.9,29.97,NW,315,0.0,3.6,69,0.00,,,0.00,WUHU21623XXSP,2013-09-30 18:32:00,
2013-09-30 14:37:00,65.5,55.0,29.98,SSE,157,0.0,2.0,69,0.00,,,0.00,WUHU21623XXSP,2013-09-30 18:37:00,
2013-09-30 14:42:00,65.5,55.0,29.98,NNE,22,0.0,2.0,69,0.00,,,0.00,WUHU21623XXSP,2013-09-30 18:42:00,
2013-09-30 14:47:00,65.3,54.9,29.97,ESE,112,0.0,0.0,69,0.00,,,0.00,WUHU21623XXSP,2013-09-30 18:47:00,
2013-09-30 14:52:00,65.1,54.7,29.97,SSE,157,0.0,0.0,69,0.00,,,0.00,WUHU21623XXSP,2013-09-30 18:52:00,
2013-09-30 14:57:00,64.9,54.6,29.97,East,90,0.0,0.0,69,0.00,,,0.00,WUHU21623XXSP,2013-09-30 18:57:00,
2013-09-30 15:02:00,64.6,54.7,29.97,NW,315,0.0,0.0,70,0.00,,,0.00,WUHU21623XXSP,2013-09-30 19:02:00,
2013-09-30 15:07:00,64.6,54.7,29.97,East,90,1.6,1.6,70,0.00,,,0.00,WUHU21623XXSP,2013-09-30 19:07:00,
2013-09-30 15:12:00,64.2,54.3,29.96,North,0,0.0,1.6,70,0.00,,,0.00,WUHU21623XXSP,2013-09-30 19:12:00,
2013-09-30 15:17:00,64.2,54.3,29.96,NE,45,0.0,0.0,70,0.00,,,0.00,WUHU21623XXSP,2013-09-30 19:17:00,
2013-09-30 15:22:00,64.2,54.3,29.96,SSE,157,0.0,0.0,70,0.00,,,0.00,WUHU21623XXSP,2013-09-30 19:22:00,
2013-09-30 15:27:00,64.2,54.3,29.96,South,180,0.0,0.0,71,0.00,,,0.00,WUHU21623XXSP,2013-09-30 19:27:00,
2013-09-30 15:32:00,64.8,54.8,29.96,ESE,112,0.0,0.0,70,0.00,,,0.00,WUHU21623XXSP,2013-09-30 19:32:00,
2013-09-30 15:37:00,64.9,55.0,29.96,SW,225,0.0,0.0,70,0.00,,,0.00,WUHU21623XXSP,2013-09-30 19:37:00,
2013-09-30 15:43:00,64.9,55.0,29.96,SSW,202,0.0,0.0,70,0.00,,,0.00,WUHU21623XXSP,2013-09-30 19:43:00,
2013-09-30 15:48:00,64.8,54.8,29.95,East,90,0.0,0.0,70,0.00,,,0.00,WUHU21623XXSP,2013-09-30 19:48:00,
2013-09-30 15:53:00,64.6,54.7,29.95,NNE,22,0.0,0.0,70,0.00,,,0.00,WUHU21623XXSP,2013-09-30 19:53:00,
2013-09-30 15:58:00,64.2,54.3,29.95,West,270,0.0,0.0,70,0.00,,,0.00,WUHU21623XXSP,2013-09-30 19:58:00,
2013-09-30 16:03:00,64.0,54.1,29.95,West,270,0.0,0.0,70,0.00,,,0.00,WUHU21623XXSP,2013-09-30 20:03:00,
2013-09-30 16:08:00,63.7,54.3,29.95,West,270,0.0,0.0,71,0.00,,,0.00,WUHU21623XXSP,2013-09-30 20:08:00,
2013-09-30 16:13:00,63.7,54.1,29.95,SSW,202,0.0,0.0,71,0.00,,,0.00,WUHU21623XXSP,2013-09-30 20:13:00,
2013-09-30 16:18:00,63.5,54.0,29.95,WNW,292,0.0,2.7,71,0.00,,,0.00,WUHU21623XXSP,2013-09-30 20:18:00,
2013-09-30 16:23:00,63.5,54.0,29.94,West,270,0.0,2.7,71,0.00,,,0.00,WUHU21623XXSP,2013-09-30 20:23:00,
2013-09-30 16:28:00,63.3,53.8,29.95,WSW,247,0.0,0.0,71,0.00,,,0.00,WUHU21623XXSP,2013-09-30 20:28:00,
2013-09-30 16:33:00,63.3,53.8,29.94,WSW,247,0.0,0.0,71,0.00,,,0.00,WUHU21623XXSP,2013-09-30 20:33:00,
2013-09-30 16:38:00,63.1,53.6,29.95,NNW,337,1.6,1.6,71,0.00,,,0.00,WUHU21623XXSP,2013-09-30 20:38:00,
2013-09-30 16:43:00,63.0,53.4,29.95,SE,135,0.0,1.6,71,0.00,,,0.00,WUHU21623XXSP,2013-09-30 20:43:00,
2013-09-30 16:48:00,62.8,52.9,29.95,WSW,247,0.0,1.6,70,0.00,,,0.00,WUHU21623XXSP,2013-09-30 20:48:00,
2013-09-30 16:50:00,62.8,52.9,29.95,NE,45,0.0,1.6,70,0.00,,,0.00,WUHU21623XXSP,2013-09-30 20:50:00,
2013-09-30 16:52:00,62.8,52.9,29.95,NE,45,0.0,0.0,70,0.00,,,0.00,WUHU21623XXSP,2013-09-30 20:52:00,
2013-09-30 16:54:00,62.8,52.9,29.95,NE,45,0.0,0.0,70,0.00,,,0.00,WUHU21623XXSP,2013-09-30 20:54:00,
2013-09-30 16:56:00,62.4,52.5,29.95,SW,225,0.0,0.0,70,0.00,,,0.00,WUHU21623XXSP,2013-09-30 20:56:00,
2013-09-30 16:59:00,62.6,52.7,29.95,SE,135,0.0,0.0,70,0.00,,,0.00,WUHU21623XXSP,2013-09-30 20:59:00,
2013-09-30 17:00:00,62.4,52.7,29.95,SE,135,0.0,0.0,70,0.00,,,0.00,WUHU21623XXSP,2013-09-30 21:00:00,
2013-09-30 17:03:00,62.4,52.5,29.95,ESE,112,0.0,0.0,70,0.00,,,0.00,WUHU21623XXSP,2013-09-30 21:03:00,
2013-09-30 17:05:00,62.4,52.5,29.95,ESE,112,0.0,0.0,70,0.00,,,0.00,WUHU21623XXSP,2013-09-30 21:05:00,
2013-09-30 17:07:00,62.4,52.5,29.95,South,180,0.0,0.0,70,0.00,,,0.00,WUHU21623XXSP,2013-09-30 21:07:00,
2013-09-30 17:09:00,62.2,52.4,29.95,West,270,0.0,0.0,70,0.00,,,0.00,WUHU21623XXSP,2013-09-30 21:09:00,
2013-09-30 17:11:00,62.2,52.4,29.95,WSW,247,0.0,0.0,70,0.00,,,0.00,WUHU21623XXSP,2013-09-30 21:11:00,
2013-09-30 17:13:00,62.1,51.8,29.95,West,270,0.7,0.7,69,0.00,,,0.00,WUHU21623XXSP,2013-09-30 21:13:00,
2013-09-30 17:15:00,61.9,51.8,29.95,West,270,0.7,0.7,69,0.00,,,0.00,WUHU21623XXSP,2013-09-30 21:15:00,
2013-09-30 17:18:00,61.9,51.6,29.95,NNW,337,0.0,0.7,69,0.00,,,0.00,WUHU21623XXSP,2013-09-30 21:18:00,
2013-09-30 17:20:00,61.7,51.5,29.95,West,270,0.0,0.7,69,0.00,,,0.00,WUHU21623XXSP,2013-09-30 21:20:00,
2013-09-30 17:22:00,61.7,51.5,29.95,SSW,202,0.0,0.7,69,0.00,,,0.00,WUHU21623XXSP,2013-09-30 21:22:00,
2013-09-30 17:24:00,61.7,51.1,29.96,West,270,0.0,0.7,68,0.00,,,0.00,WUHU21623XXSP,2013-09-30 21:24:00,
2013-09-30 17:26:00,61.5,50.9,29.96,NE,45,0.0,0.0,68,0.00,,,0.00,WUHU21623XXSP,2013-09-30 21:26:00,
2013-09-30 17:28:00,61.5,50.9,29.96,NE,45,0.0,0.0,68,0.00,,,0.00,WUHU21623XXSP,2013-09-30 21:28:00,
2013-09-30 17:30:00,61.3,50.7,29.96,South,180,0.0,0.0,68,0.00,,,0.00,WUHU21623XXSP,2013-09-30 21:30:00,
2013-09-30 17:33:00,61.3,50.7,29.96,SSE,157,0.0,0.0,68,0.00,,,0.00,WUHU21623XXSP,2013-09-30 21:33:00,
2013-09-30 17:35:00,61.3,50.7,29.96,SSE,157,0.0,0.0,68,0.00,,,0.00,WUHU21623XXSP,2013-09-30 21:35:00,
2013-09-30 17:37:00,61.2,50.6,29.96,WNW,292,0.0,0.0,68,0.00,,,0.00,WUHU21623XXSP,2013-09-30 21:37:00,
2013-09-30 17:39:00,61.0,50.4,29.96,NW,315,0.0,0.0,68,0.00,,,0.00,WUHU21623XXSP,2013-09-30 21:39:00,
2013-09-30 17:41:00,61.0,50.4,29.96,NW,315,0.0,0.0,68,0.00,,,0.00,WUHU21623XXSP,2013-09-30 21:41:00,
2013-09-30 17:43:00,60.6,50.1,29.95,NNW,337,0.0,0.0,68,0.00,,,0.00,WUHU21623XXSP,2013-09-30 21:43:00,
2013-09-30 17:46:00,60.6,50.1,29.96,NNW,337,0.0,0.0,68,0.00,,,0.00,WUHU21623XXSP,2013-09-30 21:46:00,
2013-09-30 20:29:00,52.5,46.6,29.94,NNW,337,0.0,0.0,80,0.00,,,0.00,WUHU21623XXSP,2013-10-01 00:29:00,
2013-09-30 20:34:00,52.5,46.6,29.95,NNW,337,0.0,0.0,80,0.00,,,0.00,WUHU21623XXSP,2013-10-01 00:34:00,
2013-09-30 20:39:00,52.3,46.4,29.95,NNW,337,0.0,0.0,80,0.00,,,0.00,WUHU21623XXSP,2013-10-01 00:39:00,
2013-09-30 20:45:00,52.3,46.4,29.95,NNW,337,0.0,0.0,80,0.00,,,0.00,WUHU21623XXSP,2013-10-01 00:45:00,
2013-09-30 20:49:00,52.2,46.2,29.94,NNW,337,0.0,0.0,80,0.00,,,0.00,WUHU21623XXSP,2013-10-01 00:49:00,
2013-09-30 20:54:00,52.0,46.0,29.94,NNW,337,0.0,0.0,80,0.00,,,0.00,WUHU21623XXSP,2013-10-01 00:54:00,
2013-09-30 20:59:00,51.6,45.7,29.94,NNW,337,0.0,0.0,80,0.00,,,0.00,WUHU21623XXSP,2013-10-01 00:59:00,
2013-09-30 21:04:00,51.6,45.7,29.94,NNW,337,0.0,0.0,80,0.00,,,0.00,WUHU21623XXSP,2013-10-01 01:04:00,
2013-09-30 21:09:00,51.4,45.5,29.94,NNW,337,0.0,0.0,80,0.00,,,0.00,WUHU21623XXSP,2013-10-01 01:09:00,
2013-09-30 21:14:00,51.4,45.8,29.94,NNW,337,0.0,0.0,81,0.00,,,0.00,WUHU21623XXSP,2013-10-01 01:14:00,
2013-09-30 21:19:00,51.1,45.4,29.94,NNW,337,0.0,0.0,81,0.00,,,0.00,WUHU21623XXSP,2013-10-01 01:19:00,
2013-09-30 21:24:00,51.1,45.4,29.94,NNW,337,0.0,0.0,81,0.00,,,0.00,WUHU21623XXSP,2013-10-01 01:24:00,
2013-09-30 21:30:00,50.9,45.3,29.94,NNW,337,0.0,0.0,81,0.00,,,0.00,WUHU21623XXSP,2013-10-01 01:30:00,
2013-09-30 21:35:00,50.7,45.1,29.94,NNW,337,0.0,0.0,81,0.00,,,0.00,WUHU21623XXSP,2013-10-01 01:35:00,
2013-09-30 21:40:00,50.7,45.1,29.94,NNW,337,0.0,0.0,81,0.00,,,0.00,WUHU21623XXSP,2013-10-01 01:40:00,
2013-09-30 21:44:00,50.5,44.9,29.94,NNW,337,0.0,0.0,81,0.00,,,0.00,WUHU21623XXSP,2013-10-01 01:44:00,
2013-09-30 21:50:00,50.5,44.9,29.94,NNW,337,0.0,0.0,81,0.00,,,0.00,WUHU21623XXSP,2013-10-01 01:50:00,
2013-09-30 21:55:00,50.5,44.9,29.94,NNW,337,0.0,0.0,81,0.00,,,0.00,WUHU21623XXSP,2013-10-01 01:55:00,
2013-09-30 22:00:00,50.4,44.7,29.94,NNW,337,0.0,0.0,81,0.00,,,0.00,WUHU21623XXSP,2013-10-01 02:00:00,
2013-09-30 22:05:00,50.2,44.5,29.94,NNW,337,0.0,0.0,81,0.00,,,0.00,WUHU21623XXSP,2013-10-01 02:05:00,
2013-09-30 22:10:00,50.2,44.5,29.94,NNW,337,0.0,0.0,81,0.00,,,0.00,WUHU21623XXSP,2013-10-01 02:10:00,
2013-09-30 22:15:00,50.0,44.4,29.95,NNW,337,0.0,0.0,81,0.00,,,0.00,WUHU21623XXSP,2013-10-01 02:15:00,
2013-09-30 22:20:00,49.8,44.2,29.95,NNW,337,0.0,0.0,81,0.00,,,0.00,WUHU21623XXSP,2013-10-01 02:20:00,
2013-09-30 22:25:00,49.8,44.5,29.95,NNW,337,0.0,0.0,82,0.00,,,0.00,WUHU21623XXSP,2013-10-01 02:25:00,
2013-09-30 22:30:00,49.8,44.5,29.94,NNW,337,0.0,0.0,82,0.00,,,0.00,WUHU21623XXSP,2013-10-01 02:30:00,
2013-09-30 22:35:00,49.6,44.5,29.94,NNW,337,0.0,0.0,82,0.00,,,0.00,WUHU21623XXSP,2013-10-01 02:35:00,
2013-09-30 22:40:00,49.6,44.3,29.94,NNW,337,0.0,0.0,82,0.00,,,0.00,WUHU21623XXSP,2013-10-01 02:40:00,
2013-09-30 22:44:00,49.6,44.0,29.94,NNW,337,0.0,0.0,81,0.00,,,0.00,WUHU21623XXSP,2013-10-01 02:44:00,
2013-09-30 22:49:00,49.3,43.6,29.94,NNW,337,0.0,0.0,81,0.00,,,0.00,WUHU21623XXSP,2013-10-01 02:49:00,
2013-09-30 22:54:00,49.3,43.6,29.94,NNW,337,0.0,0.0,81,0.00,,,0.00,WUHU21623XXSP,2013-10-01 02:54:00,
2013-09-30 22:59:00,49.3,44.0,29.94,NNW,337,0.0,0.0,82,0.00,,,0.00,WUHU21623XXSP,2013-10-01 02:59:00,
2013-09-30 23:04:00,49.3,44.0,29.94,NNW,337,0.0,0.0,82,0.00,,,0.00,WUHU21623XXSP,2013-10-01 03:04:00,
2013-09-30 23:09:00,49.3,44.0,29.94,NNW,337,0.0,0.0,82,0.00,,,0.00,WUHU21623XXSP,2013-10-01 03:09:00,
2013-09-30 23:14:00,49.1,43.8,29.94,NNW,337,0.0,0.0,82,0.00,,,0.00,WUHU21623XXSP,2013-10-01 03:14:00,
2013-09-30 23:19:00,49.1,43.8,29.94,NNW,337,0.0,0.0,82,0.00,,,0.00,WUHU21623XXSP,2013-10-01 03:19:00,
2013-09-30 23:24:00,48.9,43.6,29.94,NNW,337,0.0,0.0,82,0.00,,,0.00,WUHU21623XXSP,2013-10-01 03:24:00,
2013-09-30 23:29:00,48.9,43.6,29.94,NNW,337,0.0,0.0,82,0.00,,,0.00,WUHU21623XXSP,2013-10-01 03:29:00,
2013-09-30 23:34:00,48.9,43.6,29.94,NNW,337,0.0,0.0,82,0.00,,,0.00,WUHU21623XXSP,2013-10-01 03:34:00,
2013-09-30 23:39:00,48.7,43.4,29.94,NNW,337,0.0,0.0,82,0.00,,,0.00,WUHU21623XXSP,2013-10-01 03:39:00,
2013-09-30 23:44:00,48.7,43.4,29.94,NNW,337,0.0,0.0,82,0.00,,,0.00,WUHU21623XXSP,2013-10-01 03:44:00,
2013-09-30 23:49:00,48.7,43.4,29.93,NNW,337,0.0,0.0,82,0.00,,,0.00,WUHU21623XXSP,2013-10-01 03:49:00,
2013-09-30 23:54:00,48.7,43.4,29.93,NNW,337,0.0,0.0,82,0.00,,,0.00,WUHU21623XXSP,2013-10-01 03:54:00,
2013-09-30 23:59:00,48.6,43.3,29.93,NNW,337,0.0,0.0,82,0.00,,,0.00,WUHU21623XXSP,2013-10-01 03:59:00,